Joshua Tree, CA (92252)

11:27 PM PDT on September 01, 2015 (GMT -0700)
Friendly Hills NE | | Change Station
CLOSE
Current Station
Personal Weather Station
Location: Joshua Tree, CA
Elevation: 3025 ft
Nearby Weather Stations

Elev 3025 ft 34.13 °N, 116.33 °W | Updated 1 second ago

Mostly Cloudy
Mostly Cloudy
78.0 °F
Feels Like 79 °F
N
5.0
Wind Variable Wind from WSW
Gusts 7.0 mph

Today
High -- | Low -- °F
--% Chance of Precip.
Yesterday
High -- | Low -- °F
Precip. -- in
6:18 AM 7:11 PM
Waning Gibbous, 83% visible
Pressure 29.85 in
Visibility 10.0 miles
Clouds Mostly Cloudy 16000 ft
Heat Index 79 °F
Dew Point 54 °F
Humidity 43%
Rainfall 0.00 in
Snow Depth Not available.
UV 0 out of 12
Pollen 6.70 out of 12
Air Quality Not available.
Flu Activity Not available.
METAR KNXP 020556Z 02004KT 10SM BKN160 28/11 A2996 RMK AO2 SLP106 T02830106 10356 20283 51010 $
Pressure 29.85 in
Visibility 10.0 miles
Clouds Mostly Cloudy 16000 ft
Heat Index 79 °F
Dew Point 54 °F
Humidity 43%
Rainfall 0.00 in
Snow Depth Not available.
UV 0 out of 12
Pollen 6.70 out of 12
Air Quality Not available.
Flu Activity Not available.
METAR KNXP 020556Z 02004KT 10SM BKN160 28/11 A2996 RMK AO2 SLP106 T02830106 10356 20283 51010 $

10-Day Weather Forecast

×

Almanac

Astronomy

Sep. 01, 2015 Rise Set
Actual Time
Civil Twilight
Nautical Twilight
Astronomical Twilight
Moon
Length of Visible Light
Length of Day
Tomorrow will be .
, % of the Moon is Illuminated

Today's Extremes

State Highs State Lows

Community

WunderPhotos

Upload Photos

1,851,709 photos uploaded!

WunderBlogs® & News

Nearby

Air Quality

  Air Quality AQ Index Pollutant
Not available.

Snow Depth

Station Depth Elevation

Earthquake Activity

City Distance Mag. Time & Date
Minimum magnitude displayed is 2.5.

Coastal Water Temperatures

Place Temperature

Stations

Nearby Weather Stations

Station Location Temp. Windchill Dew Point Humidity Wind Precip. Elev Updated Type